createdAt,value
2022-09-02T00:00:25.541Z,19.40
2022-09-02T00:03:12.406Z,19.30
2022-09-02T00:05:58.342Z,19.30
2022-09-02T00:08:44.239Z,19.20
2022-09-02T00:11:32.412Z,19.20
2022-09-02T00:14:26.531Z,19.10
2022-09-02T00:17:12.335Z,19.10
2022-09-02T00:19:57.741Z,19.10
2022-09-02T00:22:43.338Z,19.10
2022-09-02T00:25:28.886Z,19.20
2022-09-02T00:28:15.701Z,19.10
2022-09-02T00:31:00.937Z,19.10
2022-09-02T00:33:47.058Z,19.10
2022-09-02T00:36:33.302Z,19.20
2022-09-02T00:39:19.060Z,19.30
2022-09-02T00:42:05.292Z,19.30
2022-09-02T00:44:51.427Z,19.20
2022-09-02T00:47:37.422Z,19.10
2022-09-02T00:50:28.382Z,19.00
2022-09-02T00:53:14.451Z,18.90
2022-09-02T00:56:02.409Z,18.70
2022-09-02T00:58:49.050Z,18.60
2022-09-02T01:01:34.803Z,18.50
2022-09-02T01:04:20.111Z,18.50
2022-09-02T01:07:06.609Z,18.40
2022-09-02T01:09:55.460Z,18.20
2022-09-02T01:12:41.178Z,18.10
2022-09-02T01:15:27.876Z,18.10
2022-09-02T01:18:19.050Z,17.90
2022-09-02T01:21:06.174Z,17.90
2022-09-02T01:23:53.610Z,17.80
2022-09-02T01:26:39.261Z,17.80
2022-09-02T01:29:26.949Z,17.90
2022-09-02T01:32:13.025Z,17.80
2022-09-02T01:34:59.212Z,17.80
2022-09-02T01:37:55.673Z,17.80
2022-09-02T01:40:42.954Z,17.70
2022-09-02T01:43:29.796Z,17.80
2022-09-02T01:46:15.687Z,17.60
2022-09-02T01:49:01.773Z,17.60
2022-09-02T01:51:47.853Z,17.60
2022-09-02T01:54:33.857Z,17.50
2022-09-02T01:57:20.441Z,17.40
2022-09-02T02:00:08.994Z,17.30
2022-09-02T02:02:57.990Z,17.30
2022-09-02T02:05:44.889Z,17.30
2022-09-02T02:08:33.725Z,17.30
2022-09-02T02:11:24.825Z,17.30
2022-09-02T02:14:16.834Z,17.30
2022-09-02T02:17:07.250Z,17.20
2022-09-02T02:19:52.818Z,17.10
2022-09-02T02:22:39.131Z,17.10
2022-09-02T02:25:24.764Z,17.00
2022-09-02T02:28:14.677Z,16.90
2022-09-02T02:31:00.857Z,16.80
2022-09-02T02:33:47.569Z,16.80
2022-09-02T02:36:33.360Z,16.80
2022-09-02T02:39:19.142Z,16.80
2022-09-02T02:42:05.460Z,16.70
2022-09-02T02:44:51.374Z,16.60
2022-09-02T02:47:42.625Z,16.60
2022-09-02T02:50:28.534Z,16.50
2022-09-02T02:53:14.414Z,16.50
2022-09-02T02:56:00.822Z,16.40
2022-09-02T02:58:46.408Z,16.40
2022-09-02T03:01:34.300Z,16.40
2022-09-02T03:04:20.166Z,16.30
2022-09-02T03:07:07.260Z,16.30
2022-09-02T03:09:52.875Z,16.30
2022-09-02T03:12:39.983Z,16.30
2022-09-02T03:15:26.808Z,16.10
2022-09-02T03:18:12.663Z,16.10
2022-09-02T03:20:58.385Z,16.00
2022-09-02T03:23:45.376Z,15.90
2022-09-02T03:26:31.423Z,15.90
2022-09-02T03:29:17.329Z,15.80
2022-09-02T03:32:04.709Z,15.70
2022-09-02T03:34:54.020Z,15.70
2022-09-02T03:37:39.747Z,15.70
2022-09-02T03:40:28.273Z,15.70
2022-09-02T03:43:14.944Z,15.70
2022-09-02T03:46:00.855Z,15.60
2022-09-02T03:48:47.188Z,15.50
2022-09-02T03:51:33.110Z,15.60
2022-09-02T03:54:18.782Z,15.50
2022-09-02T03:57:04.663Z,15.50
2022-09-02T03:59:51.756Z,15.40
2022-09-02T04:02:37.783Z,15.30
2022-09-02T04:05:24.403Z,15.20
2022-09-02T04:08:12.994Z,15.30
2022-09-02T04:10:58.661Z,15.40
2022-09-02T04:13:46.496Z,15.30
2022-09-02T04:17:31.578Z,15.40
2022-09-02T04:21:19.733Z,15.30
2022-09-02T04:24:06.645Z,15.40
2022-09-02T04:26:52.371Z,15.30
2022-09-02T04:29:38.115Z,15.20
2022-09-02T04:32:26.513Z,15.20
2022-09-02T04:35:12.190Z,15.10
2022-09-02T04:37:58.851Z,15.00
2022-09-02T04:40:47.069Z,14.90
2022-09-02T04:43:34.212Z,14.90
2022-09-02T04:46:28.035Z,14.80
2022-09-02T04:49:20.979Z,14.70
2022-09-02T04:52:10.609Z,14.70
2022-09-02T04:54:57.900Z,14.70
2022-09-02T04:57:43.494Z,14.60
2022-09-02T05:00:29.029Z,14.60
2022-09-02T05:03:15.982Z,14.50
2022-09-02T05:06:06.546Z,14.50
2022-09-02T05:08:58.110Z,14.50
2022-09-02T05:11:48.231Z,14.50
2022-09-02T05:14:35.287Z,14.30
2022-09-02T05:17:24.218Z,14.40
2022-09-02T05:20:10.511Z,14.50
2022-09-02T05:22:57.735Z,14.50
2022-09-02T05:25:43.218Z,14.60
2022-09-02T05:28:29.393Z,14.70
2022-09-02T05:31:17.686Z,14.80
2022-09-02T05:34:03.823Z,14.90
2022-09-02T05:36:49.626Z,15.00
2022-09-02T05:39:35.651Z,15.10
2022-09-02T05:42:23.160Z,15.30
2022-09-02T05:45:11.882Z,15.40
2022-09-02T05:48:21.573Z,15.50
2022-09-02T05:51:08.425Z,15.60
2022-09-02T05:53:56.044Z,15.70
2022-09-02T05:56:44.865Z,15.80
2022-09-02T05:59:32.972Z,16.00
2022-09-02T06:02:18.848Z,16.10
2022-09-02T06:05:04.406Z,16.30
2022-09-02T06:07:50.265Z,16.50
2022-09-02T06:10:43.299Z,16.40
2022-09-02T06:13:35.404Z,16.60
2022-09-02T06:16:23.674Z,16.60
2022-09-02T06:19:11.122Z,16.80
2022-09-02T06:21:57.365Z,16.90
2022-09-02T06:24:44.764Z,16.90
2022-09-02T06:27:38.217Z,17.10
2022-09-02T06:30:23.950Z,17.20
2022-09-02T06:33:10.294Z,17.30
2022-09-02T06:35:57.696Z,17.30
2022-09-02T06:38:46.632Z,17.50
2022-09-02T06:41:34.431Z,17.60
2022-09-02T06:44:23.352Z,17.60
2022-09-02T06:47:08.742Z,17.60
2022-09-02T06:49:54.655Z,17.70
2022-09-02T06:52:40.722Z,17.80
2022-09-02T06:55:27.019Z,18.00
2022-09-02T06:58:13.829Z,18.20
2022-09-02T07:00:59.617Z,18.30
2022-09-02T07:04:03.990Z,18.40
2022-09-02T07:06:52.949Z,18.30
2022-09-02T07:09:44.511Z,18.30
2022-09-02T07:12:35.667Z,18.50
2022-09-02T07:15:26.106Z,18.60
2022-09-02T07:18:11.570Z,18.80
2022-09-02T07:20:57.145Z,19.00
2022-09-02T07:23:43.149Z,19.10
2022-09-02T07:26:29.755Z,19.20
2022-09-02T07:29:16.810Z,19.20
2022-09-02T07:32:03.939Z,19.30
2022-09-02T07:34:49.608Z,19.40
2022-09-02T07:37:36.977Z,19.50
2022-09-02T07:40:24.770Z,19.50
2022-09-02T07:43:12.711Z,19.80
2022-09-02T07:46:02.574Z,19.70
2022-09-02T07:48:51.529Z,19.90
2022-09-02T07:51:39.719Z,19.90
2022-09-02T07:54:26.872Z,20.00
2022-09-02T07:57:13.188Z,20.20
2022-09-02T07:59:59.742Z,20.30
2022-09-02T08:02:46.392Z,20.60
2022-09-02T08:05:37.886Z,20.80
2022-09-02T08:08:26.217Z,21.00
2022-09-02T08:11:12.755Z,21.10
2022-09-02T08:13:59.419Z,21.20
2022-09-02T08:16:46.388Z,21.30
2022-09-02T08:19:32.243Z,21.50
2022-09-02T08:22:17.782Z,21.70
2022-09-02T08:25:03.912Z,21.80
2022-09-02T08:27:49.357Z,21.90
2022-09-02T08:30:35.049Z,21.90
2022-09-02T08:33:21.069Z,22.00
2022-09-02T08:36:09.147Z,22.10
2022-09-02T08:38:58.206Z,22.20
2022-09-02T08:41:51.628Z,22.40
2022-09-02T08:44:39.983Z,22.60
2022-09-02T08:47:29.746Z,22.70
2022-09-02T08:50:16.671Z,22.90
2022-09-02T08:53:18.089Z,23.10
2022-09-02T08:56:06.184Z,23.10
2022-09-02T08:59:03.064Z,23.10
2022-09-02T09:01:55.802Z,23.30
2022-09-02T09:05:16.853Z,23.60
2022-09-02T09:08:14.945Z,23.80
2022-09-02T09:11:23.790Z,24.10
2022-09-02T09:14:21.137Z,24.30
2022-09-02T09:17:21.442Z,24.40
2022-09-02T09:20:16.723Z,24.60
2022-09-02T09:23:13.202Z,24.50
2022-09-02T09:26:13.435Z,24.60
2022-09-02T09:28:59.953Z,24.70
2022-09-02T09:31:53.225Z,24.80
2022-09-02T09:34:57.270Z,24.80
2022-09-02T09:37:48.384Z,24.90
2022-09-02T09:40:35.857Z,24.90
2022-09-02T09:43:29.514Z,24.90
2022-09-02T09:46:29.262Z,25.00
2022-09-02T09:49:25.489Z,24.70
2022-09-02T09:52:11.405Z,25.20
2022-09-02T09:55:15.693Z,25.40
2022-09-02T09:58:10.325Z,25.70
2022-09-02T10:01:00.431Z,25.80
2022-09-02T10:04:12.135Z,25.90
2022-09-02T10:07:10.591Z,26.10
2022-09-02T10:10:08.676Z,26.20
2022-09-02T10:13:01.121Z,25.90
2022-09-02T10:16:12.844Z,26.30
2022-09-02T10:19:20.894Z,26.50
2022-09-02T10:22:58.689Z,26.60
2022-09-02T10:25:58.803Z,26.80
2022-09-02T10:29:09.381Z,27.00
2022-09-02T10:32:13.288Z,27.00
2022-09-02T10:35:27.027Z,27.00
2022-09-02T10:38:31.559Z,27.10
2022-09-02T10:41:23.292Z,27.20
2022-09-02T10:44:31.324Z,26.90
2022-09-02T10:47:30.727Z,27.10
2022-09-02T10:50:40.616Z,27.40
2022-09-02T10:53:26.138Z,27.50
2022-09-02T10:56:17.990Z,27.60
2022-09-02T10:59:20.457Z,27.70
2022-09-02T11:02:17.962Z,27.90
2022-09-02T11:05:09.554Z,28.00
2022-09-02T11:08:10.107Z,28.00
2022-09-02T11:10:58.552Z,27.90
2022-09-02T11:13:56.570Z,27.70
2022-09-02T11:16:49.603Z,27.90
2022-09-02T11:19:49.293Z,28.20
2022-09-02T11:22:45.269Z,28.30
2022-09-02T11:25:42.684Z,28.60
2022-09-02T11:28:51.144Z,28.70
2022-09-02T11:31:50.649Z,28.80
2022-09-02T11:34:57.995Z,29.10
2022-09-02T11:37:49.842Z,29.30
2022-09-02T11:40:44.699Z,29.60
2022-09-02T11:43:58.665Z,30.00
2022-09-02T11:46:54.941Z,30.50
2022-09-02T11:50:02.190Z,31.20
2022-09-02T11:53:01.080Z,34.30
2022-09-02T11:56:05.124Z,40.30
2022-09-02T11:58:53.012Z,46.20
2022-09-02T12:01:47.982Z,50.10
2022-09-02T12:04:59.207Z,52.80
2022-09-02T12:07:50.086Z,53.10
2022-09-02T12:10:45.499Z,53.40
2022-09-02T12:13:43.370Z,55.30
2022-09-02T12:16:29.108Z,55.80
2022-09-02T12:19:15.275Z,56.50
2022-09-02T12:22:16.285Z,55.90
2022-09-02T12:25:03.450Z,55.70
2022-09-02T12:27:50.006Z,55.00
2022-09-02T12:31:09.474Z,53.10
2022-09-02T12:33:55.168Z,53.00
2022-09-02T12:36:44.523Z,54.70
2022-09-02T12:39:32.777Z,54.80
2022-09-02T12:42:30.911Z,55.10
2022-09-02T12:45:30.610Z,52.70
2022-09-02T12:48:37.996Z,51.60
2022-09-02T12:51:57.193Z,49.00
2022-09-02T12:54:48.833Z,49.10
2022-09-02T12:57:44.042Z,49.60
2022-09-02T13:00:51.213Z,49.80
2022-09-02T13:03:50.526Z,50.30
2022-09-02T13:06:59.663Z,48.90
2022-09-02T13:10:18.577Z,46.90
2022-09-02T13:13:25.393Z,46.30
2022-09-02T13:16:28.489Z,46.30
2022-09-02T13:19:48.445Z,46.50
2022-09-02T13:23:05.895Z,45.40
2022-09-02T13:26:48.994Z,45.30
2022-09-02T13:30:06.642Z,43.70
2022-09-02T13:33:07.345Z,40.50
2022-09-02T13:35:59.392Z,39.40
2022-09-02T13:38:45.179Z,38.30
2022-09-02T13:41:32.766Z,37.20
2022-09-02T13:44:24.732Z,36.10
2022-09-02T13:47:17.285Z,35.00
2022-09-02T13:50:02.997Z,33.90
2022-09-02T13:53:45.081Z,33.20
2022-09-02T13:55:59.847Z,32.80
2022-09-02T13:58:47.871Z,32.40
2022-09-02T14:01:38.134Z,32.00
2022-09-02T14:04:24.721Z,31.70
2022-09-02T14:07:12.323Z,31.40
2022-09-02T14:10:00.586Z,31.20
2022-09-02T14:12:47.189Z,31.10
2022-09-02T14:15:34.258Z,30.90
2022-09-02T14:18:22.010Z,30.40
2022-09-02T14:21:18.472Z,30.20
2022-09-02T14:24:05.092Z,30.00
2022-09-02T14:26:56.730Z,29.80
2022-09-02T14:29:45.228Z,29.90
2022-09-02T14:32:31.134Z,29.90
2022-09-02T14:35:16.666Z,29.90
2022-09-02T14:38:02.761Z,30.00
2022-09-02T14:40:48.075Z,29.90
2022-09-02T14:43:42.608Z,29.90
2022-09-02T14:46:31.445Z,29.80
2022-09-02T14:49:20.129Z,29.50
2022-09-02T14:52:24.006Z,29.50
2022-09-02T14:55:49.936Z,29.60
2022-09-02T14:58:35.717Z,29.50
2022-09-02T15:01:21.464Z,29.30
2022-09-02T15:04:07.036Z,29.10
2022-09-02T15:06:52.848Z,29.10
2022-09-02T15:09:38.430Z,29.00
2022-09-02T15:12:36.819Z,28.90
2022-09-02T15:15:23.008Z,28.70
2022-09-02T15:18:08.999Z,28.70
2022-09-02T15:20:54.986Z,28.70
2022-09-02T15:23:41.203Z,28.60
2022-09-02T15:26:26.751Z,28.40
2022-09-02T15:29:13.599Z,28.30
2022-09-02T15:32:00.087Z,28.10
2022-09-02T15:34:45.687Z,28.00
2022-09-02T15:37:31.662Z,28.00
2022-09-02T15:40:17.077Z,27.80
2022-09-02T15:43:02.580Z,27.70
2022-09-02T15:45:48.548Z,27.70
2022-09-02T15:48:34.247Z,27.60
2022-09-02T15:51:22.315Z,27.60
2022-09-02T15:54:09.828Z,27.50
2022-09-02T15:56:58.505Z,27.40
2022-09-02T15:59:44.395Z,27.20
2022-09-02T16:02:29.962Z,27.10
2022-09-02T16:05:18.691Z,26.90
2022-09-02T16:08:04.395Z,26.90
2022-09-02T16:10:50.366Z,26.70
2022-09-02T16:13:37.321Z,26.70
2022-09-02T16:16:23.279Z,26.50
2022-09-02T16:19:09.838Z,26.50
2022-09-02T16:21:55.859Z,26.50
2022-09-02T16:24:41.610Z,26.20
2022-09-02T16:27:45.459Z,25.60
2022-09-02T16:30:30.994Z,25.30
2022-09-02T16:33:17.118Z,25.10
2022-09-02T16:36:04.297Z,25.00
2022-09-02T16:38:50.146Z,24.80
2022-09-02T16:41:45.054Z,24.60
2022-09-02T16:44:33.789Z,24.40
2022-09-02T16:47:19.559Z,24.30
2022-09-02T16:50:05.205Z,24.30
2022-09-02T16:52:51.183Z,24.40
2022-09-02T16:55:41.493Z,24.20
2022-09-02T16:58:30.024Z,24.00
2022-09-02T17:01:16.271Z,24.00
2022-09-02T17:04:02.408Z,24.10
2022-09-02T17:06:48.665Z,23.90
2022-09-02T17:09:34.516Z,23.90
2022-09-02T17:12:20.033Z,24.00
2022-09-02T17:15:05.775Z,23.90
2022-09-02T17:17:51.103Z,23.90
2022-09-02T17:20:36.722Z,23.80
2022-09-02T17:23:22.294Z,23.70
2022-09-02T17:26:07.863Z,23.70
2022-09-02T17:28:56.507Z,23.70
2022-09-02T17:31:42.428Z,23.70
2022-09-02T17:34:28.031Z,23.60
2022-09-02T17:37:13.373Z,23.50
2022-09-02T17:39:58.889Z,23.50
2022-09-02T17:42:44.369Z,23.30
2022-09-02T17:45:30.239Z,23.20
2022-09-02T17:48:49.053Z,23.20
2022-09-02T17:51:22.020Z,23.20
2022-09-02T17:54:07.940Z,23.10
2022-09-02T17:56:59.415Z,23.10
2022-09-02T17:59:59.261Z,23.00
2022-09-02T18:03:13.324Z,22.90
2022-09-02T18:06:15.380Z,22.80
2022-09-02T18:09:03.903Z,22.60
2022-09-02T18:11:49.746Z,22.60
2022-09-02T18:14:58.814Z,22.50
2022-09-02T18:17:48.391Z,22.40
2022-09-02T18:20:43.957Z,22.30
2022-09-02T18:23:46.325Z,22.20
2022-09-02T18:26:44.868Z,22.10
2022-09-02T18:29:37.022Z,22.00
2022-09-02T18:32:27.542Z,21.90
2022-09-02T18:35:19.120Z,21.80
2022-09-02T18:38:38.910Z,21.80
2022-09-02T18:41:24.496Z,21.70
2022-09-02T18:44:25.284Z,21.60
2022-09-02T18:47:27.714Z,21.60
2022-09-02T18:50:47.675Z,21.60
2022-09-02T18:53:36.622Z,21.60
2022-09-02T18:56:29.161Z,21.50
2022-09-02T18:59:20.886Z,21.40
2022-09-02T19:02:21.204Z,21.40
2022-09-02T19:05:12.204Z,21.40
2022-09-02T19:08:23.915Z,21.30
2022-09-02T19:11:14.205Z,21.30
2022-09-02T19:14:08.945Z,21.30
2022-09-02T19:16:57.310Z,21.20
2022-09-02T19:19:43.125Z,21.20
2022-09-02T19:22:30.331Z,21.10
2022-09-02T19:25:20.121Z,20.90
2022-09-02T19:28:06.188Z,20.90
2022-09-02T19:30:57.317Z,20.70
2022-09-02T19:33:43.763Z,20.80
2022-09-02T19:36:32.633Z,20.80
2022-09-02T19:39:18.174Z,20.70
2022-09-02T19:42:05.050Z,20.70
2022-09-02T19:44:50.838Z,20.70
2022-09-02T19:50:44.290Z,20.70
2022-09-02T19:53:32.720Z,20.60
2022-09-02T19:56:20.279Z,20.50
2022-09-02T19:59:05.962Z,20.50
2022-09-02T20:01:52.032Z,20.40
2022-09-02T20:04:37.550Z,20.30
2022-09-02T20:07:23.213Z,20.30
2022-09-02T20:10:09.483Z,20.20
2022-09-02T20:12:58.231Z,20.10
2022-09-02T20:15:43.781Z,20.10
2022-09-02T20:18:29.778Z,20.10
2022-09-02T20:21:42.251Z,20.10
2022-09-02T20:24:31.524Z,20.10
2022-09-02T20:27:28.793Z,20.10
2022-09-02T20:30:17.727Z,20.20
2022-09-02T20:33:17.315Z,20.30
2022-09-02T20:36:25.597Z,20.30
2022-09-02T20:39:22.307Z,20.20
2022-09-02T20:42:44.964Z,20.20
2022-09-02T20:46:10.517Z,20.10
2022-09-02T20:49:41.137Z,20.10
2022-09-02T20:53:03.735Z,19.90
2022-09-02T20:56:21.733Z,19.80
2022-09-02T20:59:32.691Z,19.80
2022-09-02T21:02:23.211Z,19.80
2022-09-02T21:05:22.562Z,19.70
2022-09-02T21:08:32.803Z,19.60
2022-09-02T21:11:21.294Z,19.50
2022-09-02T21:14:20.688Z,19.40
2022-09-02T21:17:16.423Z,19.40
2022-09-02T21:20:27.007Z,19.20
2022-09-02T21:23:38.435Z,19.20
2022-09-02T21:26:49.224Z,19.20
2022-09-02T21:29:50.017Z,19.30
2022-09-02T21:32:41.387Z,19.30
2022-09-02T21:35:42.826Z,19.20
2022-09-02T21:38:41.020Z,19.20
2022-09-02T21:41:38.915Z,19.20
2022-09-02T21:44:27.948Z,19.20
2022-09-02T21:47:57.575Z,19.10
2022-09-02T21:51:00.058Z,19.00
2022-09-02T21:54:39.698Z,19.00
2022-09-02T21:57:34.160Z,18.90
2022-09-02T22:00:20.130Z,18.80
2022-09-02T22:03:29.296Z,18.80
2022-09-02T22:06:23.614Z,18.70
2022-09-02T22:09:16.951Z,18.60
2022-09-02T22:12:11.262Z,18.60
2022-09-02T22:15:07.712Z,18.50
2022-09-02T22:18:04.675Z,18.50
2022-09-02T22:20:55.686Z,18.40
2022-09-02T22:23:42.941Z,18.30
2022-09-02T22:26:32.234Z,18.20
2022-09-02T22:29:42.575Z,18.10
2022-09-02T22:32:34.683Z,18.00
2022-09-02T22:35:45.158Z,18.00
2022-09-02T22:38:49.737Z,18.00
2022-09-02T22:41:46.095Z,18.00
2022-09-02T22:45:09.891Z,18.00
2022-09-02T22:48:45.708Z,18.00
2022-09-02T22:52:11.119Z,18.00
2022-09-02T22:54:56.755Z,18.00
2022-09-02T22:58:02.511Z,18.00
2022-09-02T23:01:22.536Z,18.00
2022-09-02T23:04:13.212Z,18.00
2022-09-02T23:07:05.334Z,18.00
2022-09-02T23:09:55.933Z,18.10
2022-09-02T23:13:00.418Z,18.10
2022-09-02T23:15:58.604Z,18.00
2022-09-02T23:19:04.023Z,18.00
2022-09-02T23:22:03.120Z,17.80
2022-09-02T23:25:03.196Z,17.80
2022-09-02T23:28:09.879Z,17.80
2022-09-02T23:31:37.460Z,17.70
2022-09-02T23:35:01.910Z,17.70
2022-09-02T23:38:27.685Z,17.70
2022-09-02T23:41:14.202Z,17.70
2022-09-02T23:44:00.488Z,17.60
2022-09-02T23:46:58.496Z,17.60
2022-09-02T23:50:08.567Z,17.60
2022-09-02T23:52:56.584Z,17.50
2022-09-02T23:55:58.345Z,17.60
2022-09-02T23:59:21.027Z,17.70
